Terminal Aerodrome Forecast
Issued by NWS Boston, MA

Home | Current Version | Previous Version | Text Only | Print | Product List | Glossary On
Versions: 1 2 3 4 5 6 7 8 9 10 11 12 13 14 15 16 17 18 19
000
FTUS41 KBOX 261726
TAFORH
TAF
KORH 261726Z 2618/2718 28010KT P6SM VCSH BKN045
     FM262000 29006KT P6SM SCT150
     FM270400 33006KT P6SM SKC
     FM271400 02005KT P6SM FEW050=

USA.gov is the U.S. government's official web portal to all federal, state and local government web resources and services.